Time;durP1;ratioP1;P1;durP2;ratioP2;P2;SDS_P1;SDS_P2;PMS_P1;PMS_P2;Temp;Humidity;BMP_temperature;BMP_pressure;BME280_temperature;BME280_humidity;BME280_pressure;Samples;Min_cycle;Max_cycle;Signal;HPM_P1;HPM_P2
2023/01/28 00:01:56;;;;;;;10.75;6.63;;;;;;;2.20;84.71;98711.38;5110610;28;20036;-70
2023/01/28 00:04:21;;;;;;;10.85;6.80;;;;;;;2.21;85.51;98709.44;5111679;28;20024;-71
2023/01/28 00:06:47;;;;;;;11.52;6.95;;;;;;;2.16;85.13;98717.78;5112599;28;20028;-71
2023/01/28 00:09:12;;;;;;;10.85;6.80;;;;;;;2.29;84.86;98714.28;5111464;28;20023;-71
2023/01/28 00:11:38;;;;;;;11.13;7.85;;;;;;;2.24;85.08;98722.66;5112791;28;20139;-70
2023/01/28 00:14:03;;;;;;;13.07;7.75;;;;;;;2.20;85.05;98721.59;5112783;28;20382;-71
2023/01/28 00:16:29;;;;;;;13.00;7.90;;;;;;;2.23;84.71;98719.09;5110327;28;20429;-71
2023/01/28 00:18:54;;;;;;;20.35;11.45;;;;;;;2.23;84.91;98726.53;5112730;28;20030;-71
2023/01/28 00:21:20;;;;;;;20.67;12.57;;;;;;;2.20;84.98;98722.41;5112708;28;20016;-71
2023/01/28 00:23:54;;;;;;;18.55;12.23;;;;;;;2.14;85.02;98715.34;5110914;28;20058;-71
2023/01/28 00:26:21;;;;;;;21.30;13.50;;;;;;;2.23;84.88;98715.50;5110881;28;20027;-71
2023/01/28 00:28:47;;;;;;;10.95;7.90;;;;;;;2.10;84.48;98726.16;5112276;28;20084;-71
2023/01/28 00:31:24;;;;;;;12.43;8.85;;;;;;;2.05;85.13;98734.50;5110068;28;20055;-71
2023/01/28 00:33:51;;;;;;;11.75;8.25;;;;;;;1.98;85.74;98728.53;5112477;28;20019;-71
2023/01/28 00:36:18;;;;;;;9.60;7.30;;;;;;;2.00;85.60;98731.78;5110190;28;20023;-71
2023/01/28 00:38:49;;;;;;;13.52;8.25;;;;;;;1.92;85.55;98735.19;5112118;28;20505;-71
2023/01/28 00:41:16;;;;;;;9.70;7.03;;;;;;;1.98;85.96;98739.56;5111167;28;20466;-71
2023/01/28 00:43:46;;;;;;;12.05;7.90;;;;;;;2.00;85.55;98736.50;5111748;28;20378;-71
2023/01/28 00:46:12;;;;;;;10.90;7.60;;;;;;;2.04;85.69;98741.13;5110929;28;20034;-71
2023/01/28 00:48:40;;;;;;;13.07;8.90;;;;;;;2.06;85.49;98746.34;5112274;28;20081;-71
2023/01/28 00:51:07;;;;;;;10.40;7.07;;;;;;;2.08;85.22;98750.47;5112045;28;20020;-71
2023/01/28 00:53:37;;;;;;;9.95;7.47;;;;;;;2.22;84.60;98749.72;5102290;28;20394;-70
2023/01/28 00:56:04;;;;;;;9.30;7.57;;;;;;;2.07;85.01;98753.50;5112233;28;20381;-70
2023/01/28 00:58:30;;;;;;;12.10;7.43;;;;;;;2.10;84.54;98756.50;5111687;28;20033;-71
2023/01/28 01:00:56;;;;;;;9.48;7.53;;;;;;;2.11;84.53;98754.53;5101897;28;20070;-70
2023/01/28 01:03:21;;;;;;;11.73;7.28;;;;;;;2.04;84.79;98754.91;5111741;28;20498;-70
2023/01/28 01:05:47;;;;;;;9.73;7.70;;;;;;;2.03;84.29;98761.53;5111821;28;20478;-71
2023/01/28 01:08:13;;;;;;;10.40;7.80;;;;;;;2.04;85.02;98754.91;5110624;28;20019;-71
2023/01/28 01:10:38;;;;;;;9.48;7.20;;;;;;;2.16;84.98;98768.28;5111752;28;20032;-71
2023/01/28 01:13:05;;;;;;;11.90;9.15;;;;;;;2.13;84.57;98768.88;5110329;28;20024;-71
2023/01/28 01:15:31;;;;;;;9.38;7.60;;;;;;;2.02;84.36;98764.63;5110596;28;20035;-70
2023/01/28 01:17:56;;;;;;;9.63;7.13;;;;;;;2.08;84.58;98767.00;5111722;28;20019;-71
2023/01/28 01:20:27;;;;;;;9.55;7.75;;;;;;;2.15;84.42;98774.09;5111840;28;20031;-71
2023/01/28 01:22:55;;;;;;;8.98;6.70;;;;;;;2.07;85.38;98770.06;5111569;28;20031;-71
2023/01/28 01:25:20;;;;;;;10.23;6.60;;;;;;;2.03;85.08;98760.75;5111809;28;20107;-70
2023/01/28 01:27:48;;;;;;;10.27;6.68;;;;;;;2.02;84.75;98772.91;5111768;28;20107;-71
2023/01/28 01:30:15;;;;;;;8.80;6.60;;;;;;;2.00;85.40;98770.41;5094405;28;20080;-71
2023/01/28 01:32:41;;;;;;;8.15;6.35;;;;;;;2.00;84.77;98773.19;5091303;28;20020;-71
2023/01/28 01:35:09;;;;;;;9.38;6.97;;;;;;;1.99;85.22;98762.41;5090322;28;20480;-71
2023/01/28 01:37:35;;;;;;;8.40;5.80;;;;;;;2.09;85.09;98763.13;5091482;28;20410;-71
2023/01/28 01:40:02;;;;;;;10.27;7.25;;;;;;;2.14;84.62;98773.28;5090129;28;20429;-71
2023/01/28 01:42:27;;;;;;;8.43;6.38;;;;;;;2.04;85.05;98765.13;5100383;28;20068;-71
2023/01/28 01:45:06;;;;;;;12.02;7.30;;;;;;;2.10;85.34;98773.06;5109447;28;20032;-71
2023/01/28 01:47:39;;;;;;;7.53;5.70;;;;;;;2.06;84.51;98769.25;5110350;28;20091;-71
2023/01/28 01:50:28;;;;;;;7.68;5.95;;;;;;;2.07;84.63;98770.88;5114502;28;20027;-71
2023/01/28 01:52:56;;;;;;;7.85;6.10;;;;;;;2.05;84.46;98780.56;5107092;28;20063;-71
2023/01/28 01:55:26;;;;;;;8.75;6.35;;;;;;;2.10;84.88;98773.06;5113809;28;20114;-71
2023/01/28 01:57:55;;;;;;;10.82;6.65;;;;;;;2.03;84.25;98774.53;5115006;28;20055;-71
2023/01/28 02:00:20;;;;;;;7.13;5.75;;;;;;;2.05;84.82;98788.84;5113728;28;20075;-70
2023/01/28 02:02:48;;;;;;;9.40;6.60;;;;;;;2.05;85.07;98781.41;5113886;28;20827;-71
2023/01/28 02:05:20;;;;;;;8.88;6.32;;;;;;;2.02;84.70;98794.97;5112832;28;20032;-71
2023/01/28 02:07:48;;;;;;;7.95;5.80;;;;;;;2.10;84.74;98789.59;5115083;28;20035;-71
2023/01/28 02:10:15;;;;;;;7.55;5.53;;;;;;;2.09;84.54;98787.13;5114900;28;20024;-71
2023/01/28 02:12:52;;;;;;;8.35;5.53;;;;;;;2.21;83.89;98803.28;5113352;28;20020;-71
2023/01/28 02:15:20;;;;;;;8.85;5.30;;;;;;;2.10;83.06;98795.13;5113941;28;20031;-71
2023/01/28 02:17:48;;;;;;;6.32;4.93;;;;;;;2.24;83.86;98808.19;5114841;27;20055;-71
2023/01/28 02:20:20;;;;;;;7.35;5.13;;;;;;;2.13;83.03;98807.50;5114676;28;20110;-71
2023/01/28 02:22:51;;;;;;;9.18;5.53;;;;;;;2.15;82.91;98799.75;5115012;28;20035;-71
2023/01/28 02:25:28;;;;;;;8.02;5.70;;;;;;;2.19;83.68;98809.06;5114627;28;20461;-71
2023/01/28 02:28:13;;;;;;;6.50;5.05;;;;;;;2.20;82.90;98812.66;5112931;28;20090;-71
2023/01/28 02:30:45;;;;;;;7.72;5.15;;;;;;;2.18;82.16;98810.19;5112170;28;20039;-71
2023/01/28 02:33:35;;;;;;;7.65;5.90;;;;;;;2.14;81.75;98809.16;5114625;28;20015;-71
2023/01/28 02:36:36;;;;;;;10.52;6.38;;;;;;;2.10;82.29;98817.19;5114788;28;20024;-71
2023/01/28 02:39:09;;;;;;;11.13;6.80;;;;;;;2.15;82.29;98821.00;5080817;28;20028;-70
2023/01/28 02:41:42;;;;;;;8.90;5.88;;;;;;;2.22;81.47;98824.22;5113113;28;20011;-71
2023/01/28 02:44:07;;;;;;;9.27;6.55;;;;;;;2.15;82.06;98816.31;5111881;28;20030;-71
2023/01/28 02:49:29;;;;;;;6.63;5.22;;;;;;;2.14;81.78;98822.13;5114436;28;20034;-70
2023/01/28 02:52:13;;;;;;;9.27;5.68;;;;;;;2.06;81.53;98813.41;5113973;28;20027;-71
2023/01/28 02:54:56;;;;;;;6.05;4.68;;;;;;;2.11;81.40;98820.75;5114185;28;20454;-71
2023/01/28 02:57:35;;;;;;;7.45;5.65;;;;;;;2.15;81.48;98826.53;5114222;28;20024;-71
2023/01/28 03:00:09;;;;;;;8.07;5.38;;;;;;;2.14;81.12;98828.47;5105606;28;20039;-71
2023/01/28 03:02:57;;;;;;;6.45;4.97;;;;;;;2.14;80.08;98817.44;5093765;28;20028;-71
2023/01/28 03:05:33;;;;;;;9.20;4.82;;;;;;;2.05;80.59;98811.75;5093612;28;20444;-71
2023/01/28 03:07:59;;;;;;;6.22;4.70;;;;;;;2.15;80.55;98824.59;5093572;28;20027;-71
2023/01/28 03:10:27;;;;;;;6.32;4.60;;;;;;;2.09;79.99;98821.06;5093498;28;20098;-71
2023/01/28 03:38:24;;;;;;;6.75;4.75;;;;;;;1.91;80.28;98846.66;5112287;28;20176;-71
2023/01/28 03:41:01;;;;;;;8.90;5.25;;;;;;;1.99;80.36;98848.78;5112264;28;20027;-70
2023/01/28 03:43:28;;;;;;;9.82;5.80;;;;;;;1.90;79.98;98837.56;5109895;28;20107;-71
2023/01/28 03:45:54;;;;;;;8.90;5.30;;;;;;;2.00;80.61;98844.91;5112719;28;20126;-71
2023/01/28 03:48:21;;;;;;;12.15;5.93;;;;;;;1.99;79.56;98851.53;5113303;28;20417;-71
2023/01/28 03:50:48;;;;;;;6.65;5.10;;;;;;;1.95;79.73;98845.78;5113273;28;20101;-70
2023/01/28 03:53:18;;;;;;;7.18;5.18;;;;;;;2.01;79.70;98849.31;5111629;28;20015;-71
2023/01/28 03:55:46;;;;;;;7.65;5.18;;;;;;;1.96;79.87;98852.13;5113058;28;20016;-71
2023/01/28 03:58:12;;;;;;;5.78;4.45;;;;;;;1.95;79.85;98853.25;5111937;28;20032;-71
2023/01/28 04:00:42;;;;;;;5.90;4.65;;;;;;;1.91;80.39;98850.25;5112758;28;20085;-71
2023/01/28 04:03:16;;;;;;;6.00;4.28;;;;;;;1.99;79.14;98857.06;5112046;28;20054;-71
2023/01/28 04:05:57;;;;;;;7.38;5.18;;;;;;;1.87;79.98;98848.34;5112667;28;20031;-70
2023/01/28 04:08:23;;;;;;;9.02;5.70;;;;;;;1.76;80.69;98853.19;5111194;28;20031;-71
2023/01/28 04:10:49;;;;;;;8.18;5.97;;;;;;;1.79;80.18;98852.59;5112700;28;20035;-71
2023/01/28 04:13:14;;;;;;;9.02;5.88;;;;;;;1.78;80.27;98856.47;5111487;28;20417;-71
2023/01/28 04:15:42;;;;;;;9.20;5.70;;;;;;;1.75;80.65;98857.84;5111849;28;20406;-70
2023/01/28 04:18:08;;;;;;;8.10;5.13;;;;;;;1.70;81.22;98855.16;5111143;28;20026;-70
2023/01/28 04:20:34;;;;;;;6.03;4.45;;;;;;;1.72;80.69;98852.94;5112795;28;20024;-71
2023/01/28 04:22:59;;;;;;;6.20;4.55;;;;;;;1.75;80.77;98851.50;5112307;28;20470;-71
2023/01/28 04:25:25;;;;;;;6.32;4.25;;;;;;;1.77;80.52;98857.56;5110657;28;20028;-71
2023/01/28 04:27:50;;;;;;;6.63;4.70;;;;;;;1.78;80.64;98864.72;5112747;28;20417;-71
2023/01/28 04:30:16;;;;;;;8.93;5.80;;;;;;;1.77;80.58;98866.66;5111262;28;20131;-71
2023/01/28 04:32:42;;;;;;;7.63;5.15;;;;;;;1.74;80.51;98861.72;5111121;28;20057;-70
2023/01/28 04:35:07;;;;;;;8.13;6.13;;;;;;;1.73;80.92;98865.59;5110883;28;20466;-71
2023/01/28 04:37:33;;;;;;;6.88;4.72;;;;;;;1.67;80.75;98858.47;5112451;28;20059;-71
2023/01/28 04:39:58;;;;;;;8.18;5.57;;;;;;;1.68;81.26;98866.47;5112272;28;20032;-71
2023/01/28 04:42:24;;;;;;;8.07;5.55;;;;;;;1.63;81.37;98861.03;5112345;28;20535;-71
2023/01/28 04:44:49;;;;;;;9.10;6.00;;;;;;;1.65;81.65;98869.81;5111116;28;20474;-71
2023/01/28 04:47:15;;;;;;;7.63;5.78;;;;;;;1.62;81.72;98872.31;5111017;28;20024;-71
2023/01/28 04:49:40;;;;;;;9.65;6.47;;;;;;;1.65;81.62;98867.06;5112166;28;20027;-71
2023/01/28 04:52:05;;;;;;;7.90;6.72;;;;;;;1.70;81.46;98885.50;5112228;28;20024;-71
2023/01/28 04:54:31;;;;;;;6.65;5.50;;;;;;;1.67;81.42;98884.13;5112095;28;20019;-71
2023/01/28 04:56:56;;;;;;;9.02;6.60;;;;;;;1.64;81.38;98889.41;5110621;28;20035;-71
2023/01/28 04:59:22;;;;;;;8.80;5.10;;;;;;;1.72;81.07;98902.56;5108774;28;20024;-71
2023/01/28 05:01:48;;;;;;;6.72;5.30;;;;;;;1.68;80.84;98896.81;5110601;28;20028;-71
2023/01/28 05:04:16;;;;;;;9.43;5.30;;;;;;;1.73;81.15;98906.97;5110512;28;20027;-71
2023/01/28 05:06:41;;;;;;;9.77;5.35;;;;;;;1.65;81.20;98897.38;5110628;28;20020;-71
2023/01/28 05:09:07;;;;;;;9.68;6.03;;;;;;;1.68;81.77;98907.84;5112168;28;20397;-71
2023/01/28 05:11:32;;;;;;;9.18;7.13;;;;;;;1.63;81.26;98909.81;5110430;28;20046;-71
2023/01/28 05:13:58;;;;;;;11.50;6.28;;;;;;;1.60;81.46;98915.91;5110825;28;20024;-70
2023/01/28 05:16:23;;;;;;;11.93;8.02;;;;;;;1.56;81.97;98906.56;5109429;28;20035;-70
2023/01/28 05:18:50;;;;;;;15.95;8.30;;;;;;;1.62;81.57;98919.19;5110850;28;20444;-70
2023/01/28 05:21:16;;;;;;;10.25;6.75;;;;;;;1.53;81.94;98917.03;5111645;28;20020;-71
2023/01/28 05:23:42;;;;;;;10.48;6.65;;;;;;;1.57;81.54;98925.56;5113777;28;20394;-71
2023/01/28 05:26:08;;;;;;;10.45;6.95;;;;;;;1.50;81.85;98906.59;5114107;28;20592;-71
2023/01/28 05:28:34;;;;;;;12.25;7.80;;;;;;;1.48;81.96;98919.84;5112790;28;20023;-70
2023/01/28 05:31:03;;;;;;;16.90;9.35;;;;;;;1.44;82.04;98917.97;5115672;28;20460;-71
2023/01/28 05:33:29;;;;;;;15.35;8.80;;;;;;;1.42;82.28;98917.44;5115627;28;20016;-71
2023/01/28 05:35:55;;;;;;;15.82;9.32;;;;;;;1.37;82.17;98919.09;5114665;28;20048;-71
2023/01/28 05:38:20;;;;;;;19.42;9.48;;;;;;;1.44;82.54;98923.47;5116045;28;20027;-71
2023/01/28 05:40:46;;;;;;;16.15;8.82;;;;;;;1.42;82.94;98925.69;5113702;28;20031;-71
2023/01/28 05:43:12;;;;;;;8.93;7.03;;;;;;;1.43;82.56;98933.66;5112953;28;20023;-71
2023/01/28 05:45:38;;;;;;;10.63;8.02;;;;;;;1.47;82.87;98931.16;5114356;28;20035;-70
2023/01/28 05:48:04;;;;;;;11.35;7.40;;;;;;;1.51;82.70;98935.81;5114771;28;20397;-70
2023/01/28 05:50:29;;;;;;;8.98;6.13;;;;;;;1.52;82.36;98942.97;5115753;28;20390;-69
2023/01/28 05:52:55;;;;;;;6.80;5.00;;;;;;;1.52;82.89;98939.41;5115623;28;20486;-70
2023/01/28 05:55:20;;;;;;;9.63;6.47;;;;;;;1.49;83.40;98940.81;5111943;28;20427;-70
2023/01/28 05:57:47;;;;;;;7.88;5.40;;;;;;;1.50;83.30;98939.69;5115371;28;20099;-71
2023/01/28 06:00:14;;;;;;;15.95;7.00;;;;;;;1.58;83.49;98942.94;5114354;28;20031;-70
2023/01/28 06:02:41;;;;;;;8.18;5.45;;;;;;;1.54;83.18;98948.22;5111303;28;20512;-72
2023/01/28 06:05:06;;;;;;;8.13;5.70;;;;;;;1.50;83.53;98958.97;5111576;28;20114;-70
2023/01/28 06:07:32;;;;;;;8.50;5.78;;;;;;;1.52;83.59;98961.47;5112808;28;20137;-70
2023/01/28 06:09:57;;;;;;;11.48;6.88;;;;;;;1.57;83.98;98966.09;5107923;28;20510;-71
2023/01/28 06:12:23;;;;;;;10.40;7.00;;;;;;;1.60;84.21;98976.56;5111514;28;20517;-71
2023/01/28 06:14:48;;;;;;;13.68;7.38;;;;;;;1.62;83.73;98975.13;5112220;28;20116;-70
2023/01/28 06:17:14;;;;;;;12.38;7.97;;;;;;;1.65;84.29;98984.78;5112663;28;20031;-71
2023/01/28 06:19:40;;;;;;;8.27;5.82;;;;;;;1.65;84.78;98973.75;5112879;28;20052;-70
2023/01/28 06:22:05;;;;;;;13.52;8.20;;;;;;;1.63;84.72;98974.06;5110307;28;20406;-71
2023/01/28 06:24:31;;;;;;;14.70;8.38;;;;;;;1.65;84.85;98991.13;5110373;28;20071;-71
2023/01/28 06:26:57;;;;;;;12.02;7.95;;;;;;;1.69;84.58;98994.16;5110085;28;20542;-71
2023/01/28 06:29:22;;;;;;;11.15;7.55;;;;;;;1.80;83.95;99000.38;5111628;28;20054;-71
2023/01/28 06:31:48;;;;;;;16.33;8.98;;;;;;;1.78;84.56;98997.91;5110956;28;20038;-70
2023/01/28 06:34:14;;;;;;;16.83;10.32;;;;;;;1.78;84.32;99000.66;5109262;28;20027;-71
2023/01/28 06:36:39;;;;;;;13.27;8.45;;;;;;;1.82;84.20;99000.91;5110203;28;20034;-71
2023/01/28 06:39:05;;;;;;;11.75;7.72;;;;;;;1.84;83.88;99006.16;5107910;28;20410;-71
2023/01/28 06:41:31;;;;;;;11.07;7.25;;;;;;;1.86;84.12;99007.50;5107482;28;20031;-69
2023/01/28 06:43:56;;;;;;;10.68;7.55;;;;;;;1.95;83.87;99016.00;5097845;28;20508;-71
2023/01/28 06:46:23;;;;;;;16.55;9.27;;;;;;;1.90;83.71;99008.59;5108102;28;20027;-69
2023/01/28 06:48:48;;;;;;;16.05;9.80;;;;;;;2.03;83.72;99022.81;5109100;28;20030;-70
2023/01/28 06:51:14;;;;;;;15.13;9.32;;;;;;;2.04;83.53;99021.72;5109529;28;20055;-70
2023/01/28 06:53:40;;;;;;;9.80;6.90;;;;;;;2.08;82.91;99018.09;5108189;28;20019;-70
2023/01/28 06:56:06;;;;;;;11.75;7.57;;;;;;;2.15;82.46;99025.19;5107745;27;20028;-70
2023/01/28 06:58:33;;;;;;;14.00;10.23;;;;;;;2.19;82.10;99027.09;5108635;28;20019;-70
2023/01/28 07:00:59;;;;;;;17.98;11.50;;;;;;;2.23;82.19;99035.63;5109035;28;20058;-70
2023/01/28 07:03:25;;;;;;;21.92;11.35;;;;;;;2.25;81.31;99033.38;5102651;28;20028;-71
2023/01/28 07:05:51;;;;;;;46.90;18.42;;;;;;;2.25;81.48;99036.13;5108844;27;20027;-70
2023/01/28 07:08:16;;;;;;;46.22;21.10;;;;;;;2.27;81.73;99050.47;5105130;28;20059;-69
2023/01/28 07:10:42;;;;;;;49.55;21.65;;;;;;;2.30;81.59;99052.66;5105800;28;21380;-72
2023/01/28 07:13:08;;;;;;;16.48;8.90;;;;;;;2.33;81.93;99049.31;5107104;28;20023;-69
2023/01/28 07:15:34;;;;;;;19.77;11.55;;;;;;;2.40;82.32;99062.78;5106870;28;20118;-70
2023/01/28 07:17:59;;;;;;;22.98;11.02;;;;;;;2.37;80.94;99055.09;5105322;28;20035;-70
2023/01/28 07:20:24;;;;;;;21.95;11.40;;;;;;;2.40;80.83;99062.78;5106174;28;20557;-70
2023/01/28 07:22:50;;;;;;;25.35;11.70;;;;;;;2.46;80.44;99058.03;5109936;28;20131;-70
2023/01/28 07:25:15;;;;;;;29.83;12.98;;;;;;;2.50;79.63;99061.84;5108963;28;20043;-71
2023/01/28 07:27:49;;;;;;;25.98;12.32;;;;;;;2.53;78.66;99073.16;5108878;28;20091;-70
2023/01/28 07:30:16;;;;;;;20.27;11.20;;;;;;;2.58;80.43;99077.78;5106055;28;20048;-73
2023/01/28 07:32:42;;;;;;;15.20;9.25;;;;;;;2.56;80.15;99071.75;5105679;28;20032;-70
2023/01/28 07:35:10;;;;;;;20.38;10.48;;;;;;;2.65;78.33;99077.44;5107499;28;20555;-71
2023/01/28 07:37:35;;;;;;;21.40;11.70;;;;;;;2.63;77.49;99069.44;5108872;28;20019;-70
2023/01/28 07:40:01;;;;;;;20.52;12.13;;;;;;;2.74;76.69;99074.88;5109865;28;20547;-70
2023/01/28 07:42:26;;;;;;;120.00;52.05;;;;;;;2.84;76.60;99079.47;5105338;28;20061;-72
2023/01/28 07:44:52;;;;;;;67.90;32.88;;;;;;;2.91;77.24;99074.41;5105114;28;20031;-70
2023/01/28 07:47:18;;;;;;;171.48;82.28;;;;;;;3.08;75.83;99077.53;5100758;28;20039;-69
2023/01/28 07:49:44;;;;;;;22.33;12.32;;;;;;;3.18;75.06;99084.03;5093317;28;20478;-69
2023/01/28 07:52:10;;;;;;;25.13;13.27;;;;;;;3.16;75.37;99089.88;5108330;28;20542;-70
2023/01/28 07:54:35;;;;;;;35.50;14.27;;;;;;;3.11;74.16;99078.88;5107311;28;20032;-68
2023/01/28 07:57:01;;;;;;;50.90;26.13;;;;;;;3.20;72.89;99093.69;5106712;28;20042;-70
2023/01/28 07:59:26;;;;;;;19.38;12.50;;;;;;;3.42;75.20;99091.47;5105010;28;20046;-69
2023/01/28 08:01:55;;;;;;;13.75;8.45;;;;;;;3.39;72.58;99079.09;5101253;28;20519;-70
2023/01/28 08:04:20;;;;;;;52.30;31.48;;;;;;;3.28;73.19;99094.97;5096052;28;20036;-69
2023/01/28 08:06:46;;;;;;;16.52;10.90;;;;;;;3.15;72.48;99096.53;5108417;28;20533;-69
2023/01/28 08:09:11;;;;;;;37.83;21.05;;;;;;;3.10;74.05;99096.56;5108328;28;20574;-69
2023/01/28 08:11:38;;;;;;;16.48;11.32;;;;;;;3.18;75.16;99098.69;5107652;28;20566;-69
2023/01/28 08:14:04;;;;;;;22.63;17.17;;;;;;;3.24;74.30;99110.53;5100977;28;20020;-69
2023/01/28 08:16:30;;;;;;;9.18;6.68;;;;;;;3.24;73.35;99107.75;5100816;28;20439;-70
2023/01/28 08:18:56;;;;;;;14.30;8.77;;;;;;;3.25;73.05;99111.31;5100903;28;20038;-69
2023/01/28 08:21:21;;;;;;;15.85;10.55;;;;;;;3.18;72.43;99107.00;5105090;27;20503;-70
2023/01/28 08:23:47;;;;;;;19.38;9.48;;;;;;;3.21;73.62;99111.13;5101833;28;20036;-69
2023/01/28 08:26:13;;;;;;;61.58;28.85;;;;;;;3.23;73.99;99109.69;5101340;28;20023;-70
2023/01/28 08:28:38;;;;;;;22.27;12.45;;;;;;;3.24;73.24;99116.03;5106144;28;20059;-69
2023/01/28 08:31:04;;;;;;;33.10;14.20;;;;;;;3.33;74.00;99116.22;5106361;28;20047;-70
2023/01/28 08:33:29;;;;;;;9.73;6.47;;;;;;;3.36;73.69;99124.75;5104153;28;20019;-69
2023/01/28 08:35:55;;;;;;;11.70;8.15;;;;;;;3.42;73.31;99117.22;5106395;28;20529;-70
2023/01/28 08:38:21;;;;;;;11.18;6.72;;;;;;;3.48;72.02;99124.31;5107638;28;20055;-71
2023/01/28 08:40:49;;;;;;;17.40;8.60;;;;;;;3.46;71.95;99118.25;5106867;28;20454;-71
2023/01/28 08:43:15;;;;;;;23.52;12.43;;;;;;;3.57;73.29;99118.13;5110127;28;20466;-69
2023/01/28 08:45:41;;;;;;;15.02;9.52;;;;;;;3.57;73.36;99120.88;5108881;28;20133;-71
2023/01/28 08:48:10;;;;;;;25.83;12.73;;;;;;;3.60;73.27;99128.59;5110573;28;20470;-71
2023/01/28 08:50:38;;;;;;;12.57;6.47;;;;;;;3.60;72.59;99123.06;5107936;28;20051;-70
2023/01/28 08:53:10;;;;;;;9.45;6.28;;;;;;;3.63;73.34;99133.53;5102436;28;20019;-71
2023/01/28 08:55:36;;;;;;;10.20;7.22;;;;;;;3.67;73.42;99134.59;5103621;28;20098;-71
2023/01/28 08:58:03;;;;;;;8.40;6.65;;;;;;;3.74;71.61;99140.59;5108039;28;20553;-71
2023/01/28 09:00:29;;;;;;;10.27;6.53;;;;;;;3.71;71.47;99135.63;5109306;28;20702;-71
2023/01/28 09:02:54;;;;;;;11.73;8.48;;;;;;;3.81;73.30;99133.84;5108202;28;20031;-73
2023/01/28 09:05:20;;;;;;;21.80;12.40;;;;;;;3.80;72.53;99144.06;5110058;28;20035;-74
2023/01/28 09:07:46;;;;;;;11.15;7.20;;;;;;;3.75;70.61;99145.00;5108329;28;20031;-71
2023/01/28 09:10:12;;;;;;;10.73;7.40;;;;;;;3.76;70.04;99141.09;5110872;28;20059;-71
2023/01/28 09:12:37;;;;;;;10.32;7.97;;;;;;;3.87;72.92;99147.31;5110729;28;20407;-73
2023/01/28 09:15:03;;;;;;;12.40;7.22;;;;;;;3.92;70.63;99143.66;5109036;28;20023;-71
2023/01/28 09:17:29;;;;;;;14.25;9.18;;;;;;;3.99;71.65;99149.66;5112040;28;20414;-72
2023/01/28 09:19:54;;;;;;;10.65;7.18;;;;;;;3.94;70.23;99133.09;5110493;28;20034;-72
2023/01/28 09:22:20;;;;;;;14.05;8.75;;;;;;;3.97;71.12;99145.53;5111588;28;20322;-75
2023/01/28 09:24:46;;;;;;;11.18;7.72;;;;;;;3.89;68.41;99147.03;5107560;28;20024;-73
2023/01/28 09:27:12;;;;;;;10.90;7.70;;;;;;;3.99;71.11;99140.50;5101777;28;20067;-75
2023/01/28 09:29:37;;;;;;;11.85;9.05;;;;;;;3.92;68.99;99141.72;5105208;28;20512;-73
2023/01/28 09:32:04;;;;;;;7.60;5.88;;;;;;;4.02;70.62;99135.22;5111697;28;20128;-74
2023/01/28 09:34:29;;;;;;;7.80;5.53;;;;;;;4.04;70.21;99137.66;5110377;28;20095;-72
2023/01/28 09:36:55;;;;;;;8.23;6.68;;;;;;;4.16;70.82;99142.75;5111686;28;20023;-76
2023/01/28 09:39:21;;;;;;;35.20;17.25;;;;;;;4.19;69.26;99142.97;5110247;28;20046;-73
2023/01/28 09:42:05;;;;;;;31.20;18.23;;;;;;;4.31;68.35;99141.69;5102733;28;20019;-77
2023/01/28 09:45:05;;;;;;;61.38;24.60;;;;;;;4.52;67.57;99144.13;5091092;28;20065;-76
2023/01/28 09:47:40;;;;;;;132.93;74.22;;;;;;;4.55;67.88;99151.84;5109821;28;20497;-73
2023/01/28 09:50:11;;;;;;;172.15;86.60;;;;;;;4.55;66.82;99138.81;5107607;28;20031;-75
2023/01/28 09:52:40;;;;;;;374.25;185.88;;;;;;;4.63;69.35;99140.06;5109909;28;20027;-76
2023/01/28 09:55:19;;;;;;;438.50;224.57;;;;;;;4.66;66.84;99141.41;5109477;28;20085;-75
2023/01/28 09:57:49;;;;;;;167.48;90.10;;;;;;;4.61;67.97;99147.84;5108055;28;20514;-75
2023/01/28 10:00:18;;;;;;;279.80;132.07;;;;;;;4.74;69.15;99152.59;5118025;28;20034;-73
2023/01/28 10:03:15;;;;;;;65.13;41.85;;;;;;;4.58;65.93;99152.03;5110108;28;20028;-74
2023/01/28 10:06:13;;;;;;;160.23;88.68;;;;;;;4.38;67.74;99155.16;5111034;28;20106;-74
2023/01/28 10:09:15;;;;;;;507.02;266.08;;;;;;;4.53;69.08;99154.91;5109410;28;20032;-75
2023/01/28 10:12:08;;;;;;;111.15;57.45;;;;;;;4.27;67.48;99152.56;5098842;28;20069;-72
2023/01/28 10:15:01;;;;;;;264.48;117.03;;;;;;;4.37;69.21;99156.28;5110795;28;20035;-77
2023/01/28 10:17:41;;;;;;;654.90;339.00;;;;;;;4.45;69.63;99144.50;5114591;28;20034;-72
2023/01/28 10:20:15;;;;;;;211.45;113.80;;;;;;;4.29;67.97;99155.84;5113378;28;20429;-75
2023/01/28 10:22:48;;;;;;;7.55;6.03;;;;;;;4.21;68.27;99162.03;5113782;28;20016;-74
2023/01/28 10:25:20;;;;;;;40.38;21.25;;;;;;;4.17;67.79;99145.22;5102937;28;20058;-75
2023/01/28 10:27:47;;;;;;;50.88;23.55;;;;;;;4.17;68.79;99156.31;5114186;28;20019;-75
2023/01/28 10:30:21;;;;;;;53.05;23.35;;;;;;;4.10;70.01;99152.25;5110127;28;20109;-75
2023/01/28 10:32:59;;;;;;;31.45;16.30;;;;;;;4.13;69.37;99146.13;5114485;28;20122;-76
2023/01/28 10:35:25;;;;;;;37.30;20.55;;;;;;;4.12;71.38;99148.06;5114151;28;20106;-76
2023/01/28 10:37:58;;;;;;;19.73;12.77;;;;;;;3.93;70.92;99145.28;5113357;28;20118;-73
2023/01/28 10:40:23;;;;;;;22.33;16.05;;;;;;;3.97;72.02;99154.63;5111751;28;20028;-74
2023/01/28 10:42:48;;;;;;;19.63;14.25;;;;;;;3.92;72.04;99154.72;5111918;28;20097;-74
2023/01/28 10:45:25;;;;;;;21.05;13.55;;;;;;;3.86;71.31;99142.06;5111735;28;20027;-76
2023/01/28 10:47:58;;;;;;;18.48;11.15;;;;;;;3.91;72.29;99164.16;5112467;28;20038;-75
2023/01/28 10:50:27;;;;;;;12.98;8.90;;;;;;;3.64;70.33;99158.13;5109537;28;20058;-75
2023/01/28 10:53:03;;;;;;;19.25;12.50;;;;;;;3.65;71.02;99153.44;5112340;28;20399;-71
2023/01/28 10:55:44;;;;;;;12.10;8.88;;;;;;;3.53;70.71;99150.25;5105536;28;20118;-76
2023/01/28 10:58:18;;;;;;;12.07;8.85;;;;;;;3.55;69.90;99151.59;5107568;28;20024;-76
2023/01/28 11:00:44;;;;;;;13.88;9.77;;;;;;;3.53;70.54;99162.13;5109784;28;20047;-76
2023/01/28 11:03:26;;;;;;;14.23;7.68;;;;;;;3.54;70.28;99155.47;5106332;28;20062;-79
2023/01/28 11:05:56;;;;;;;12.23;8.57;;;;;;;3.57;71.91;99146.63;5107026;28;20028;-75
2023/01/28 11:08:27;;;;;;;9.00;6.93;;;;;;;3.54;70.11;99147.19;5108846;28;20027;-78
2023/01/28 11:10:54;;;;;;;10.48;7.47;;;;;;;3.43;69.63;99140.97;5111428;28;20063;-77
2023/01/28 11:13:27;;;;;;;13.13;8.40;;;;;;;3.43;70.43;99140.13;5105974;28;20473;-75
2023/01/28 11:16:05;;;;;;;14.43;9.40;;;;;;;3.55;71.51;99159.09;5110029;28;20486;-77
2023/01/28 11:18:39;;;;;;;10.25;8.13;;;;;;;3.45;71.26;99166.38;5111458;28;20462;-81
2023/01/28 11:21:18;;;;;;;10.93;7.78;;;;;;;3.50;71.48;99144.22;5109780;28;20055;-78
2023/01/28 11:24:06;;;;;;;11.15;7.95;;;;;;;3.58;70.92;99156.56;5109464;28;20024;-80
2023/01/28 11:26:35;;;;;;;13.73;9.63;;;;;;;3.62;72.68;99142.94;5093932;28;20027;-77
2023/01/28 11:29:00;;;;;;;20.23;11.82;;;;;;;3.74;72.96;99140.59;5111128;28;20035;-75
2023/01/28 11:31:27;;;;;;;22.60;12.20;;;;;;;3.63;72.28;99145.41;5101290;28;20042;-76
2023/01/28 11:33:57;;;;;;;23.85;12.05;;;;;;;3.64;72.34;99149.81;5106172;28;20047;-76
2023/01/28 11:36:31;;;;;;;23.77;11.20;;;;;;;3.89;73.11;99144.25;5108669;28;20509;-77
2023/01/28 11:38:59;;;;;;;16.00;10.20;;;;;;;3.92;74.27;99151.97;5108485;28;20028;-73
2023/01/28 11:41:36;;;;;;;14.23;10.35;;;;;;;3.85;73.19;99146.78;5109729;28;20020;-77
2023/01/28 11:44:22;;;;;;;15.98;10.05;;;;;;;3.89;74.44;99153.38;5109518;28;20047;-78
2023/01/28 11:46:57;;;;;;;14.13;9.07;;;;;;;3.84;72.18;99150.69;5112080;28;20413;-76
2023/01/28 11:49:47;;;;;;;17.60;9.82;;;;;;;3.74;73.11;99151.66;5106667;28;20031;-76
2023/01/28 11:52:34;;;;;;;16.65;10.32;;;;;;;3.78;74.97;99144.41;5101945;28;20035;-78
2023/01/28 11:55:39;;;;;;;12.02;8.05;;;;;;;3.58;72.76;99153.78;5104344;28;20026;-77
2023/01/28 11:58:10;;;;;;;21.13;12.25;;;;;;;3.61;74.11;99147.66;5109570;28;20405;-74
2023/01/28 12:01:03;;;;;;;14.15;10.63;;;;;;;3.57;74.33;99151.31;5103753;28;20019;-75
2023/01/28 12:03:46;;;;;;;16.60;10.15;;;;;;;3.60;74.27;99157.06;5110268;28;20181;-73
2023/01/28 12:06:35;;;;;;;16.10;11.85;;;;;;;3.66;73.87;99155.06;5107387;28;20047;-77
2023/01/28 12:09:22;;;;;;;18.25;12.00;;;;;;;3.58;74.67;99159.31;5108367;28;20480;-73
2023/01/28 12:12:18;;;;;;;19.20;12.57;;;;;;;3.67;74.03;99155.88;5108294;28;20038;-75
2023/01/28 12:15:20;;;;;;;14.45;10.57;;;;;;;3.58;74.31;99155.72;5110904;28;20016;-74